sensor_id;sensor_type;location;lat;lon;timestamp;P1;durP1;ratioP1;P2;durP2;ratioP2
13075;SDS011;6604;52.484;13.330;2022-09-03T07:48:18;1.83;;;1.70;;
13075;SDS011;6604;52.484;13.330;2022-09-03T07:50:45;5.03;;;1.83;;
13075;SDS011;6604;52.484;13.330;2022-09-03T07:53:12;2.90;;;1.60;;
13075;SDS011;6604;52.484;13.330;2022-09-03T07:55:39;5.17;;;2.20;;
13075;SDS011;6604;52.484;13.330;2022-09-03T07:58:05;2.67;;;1.80;;
13075;SDS011;6604;52.484;13.330;2022-09-03T08:00:32;3.60;;;1.60;;
13075;SDS011;6604;52.484;13.330;2022-09-03T08:02:58;2.27;;;1.57;;
13075;SDS011;6604;52.484;13.330;2022-09-03T08:05:32;1.90;;;1.60;;
13075;SDS011;6604;52.484;13.330;2022-09-03T08:07:59;1.70;;;1.50;;
13075;SDS011;6604;52.484;13.330;2022-09-03T08:10:25;2.63;;;1.47;;
13075;SDS011;6604;52.484;13.330;2022-09-03T08:12:54;2.00;;;1.80;;
13075;SDS011;6604;52.484;13.330;2022-09-03T08:15:21;2.87;;;1.57;;
13075;SDS011;6604;52.484;13.330;2022-09-03T08:17:47;2.17;;;1.63;;
13075;SDS011;6604;52.484;13.330;2022-09-03T08:20:14;2.47;;;1.80;;
13075;SDS011;6604;52.484;13.330;2022-09-03T08:22:41;2.73;;;1.70;;
13075;SDS011;6604;52.484;13.330;2022-09-03T08:25:08;3.60;;;1.50;;
13075;SDS011;6604;52.484;13.330;2022-09-03T08:27:35;3.90;;;1.83;;
13075;SDS011;6604;52.484;13.330;2022-09-03T08:30:01;2.37;;;1.70;;
13075;SDS011;6604;52.484;13.330;2022-09-03T08:32:29;5.50;;;2.10;;
13075;SDS011;6604;52.484;13.330;2022-09-03T08:34:55;4.87;;;1.93;;
13075;SDS011;6604;52.484;13.330;2022-09-03T08:37:21;1.93;;;1.80;;
13075;SDS011;6604;52.484;13.330;2022-09-03T08:39:54;2.87;;;1.73;;
13075;SDS011;6604;52.484;13.330;2022-09-03T08:42:24;2.70;;;1.60;;
13075;SDS011;6604;52.484;13.330;2022-09-03T08:44:56;2.23;;;1.90;;
13075;SDS011;6604;52.484;13.330;2022-09-03T08:47:24;4.57;;;1.93;;
13075;SDS011;6604;52.484;13.330;2022-09-03T08:49:53;1.50;;;1.40;;
13075;SDS011;6604;52.484;13.330;2022-09-03T08:52:23;4.23;;;1.67;;
13075;SDS011;6604;52.484;13.330;2022-09-03T08:54:50;3.23;;;1.73;;
13075;SDS011;6604;52.484;13.330;2022-09-03T08:57:19;2.13;;;1.63;;
13075;SDS011;6604;52.484;13.330;2022-09-03T08:59:46;2.37;;;1.63;;
13075;SDS011;6604;52.484;13.330;2022-09-03T09:02:16;3.57;;;1.80;;
13075;SDS011;6604;52.484;13.330;2022-09-03T09:04:49;1.87;;;1.57;;
13075;SDS011;6604;52.484;13.330;2022-09-03T09:07:20;1.93;;;1.63;;
13075;SDS011;6604;52.484;13.330;2022-09-03T09:09:52;2.80;;;1.57;;
13075;SDS011;6604;52.484;13.330;2022-09-03T09:12:28;2.83;;;1.57;;
13075;SDS011;6604;52.484;13.330;2022-09-03T09:15:00;4.73;;;1.60;;
13075;SDS011;6604;52.484;13.330;2022-09-03T09:17:32;2.60;;;1.50;;
13075;SDS011;6604;52.484;13.330;2022-09-03T09:20:07;3.07;;;1.60;;
13075;SDS011;6604;52.484;13.330;2022-09-03T09:22:37;4.63;;;1.63;;
13075;SDS011;6604;52.484;13.330;2022-09-03T09:25:07;3.47;;;1.80;;
13075;SDS011;6604;52.484;13.330;2022-09-03T09:27:38;3.53;;;1.60;;
13075;SDS011;6604;52.484;13.330;2022-09-03T09:30:06;3.83;;;1.80;;
13075;SDS011;6604;52.484;13.330;2022-09-03T09:32:34;2.63;;;1.53;;
13075;SDS011;6604;52.484;13.330;2022-09-03T09:35:02;2.67;;;1.80;;
13075;SDS011;6604;52.484;13.330;2022-09-03T09:37:34;5.43;;;1.60;;
13075;SDS011;6604;52.484;13.330;2022-09-03T09:40:01;2.67;;;1.50;;
13075;SDS011;6604;52.484;13.330;2022-09-03T09:42:27;2.57;;;1.40;;
13075;SDS011;6604;52.484;13.330;2022-09-03T09:44:57;1.70;;;1.47;;
13075;SDS011;6604;52.484;13.330;2022-09-03T09:47:34;2.87;;;1.60;;
13075;SDS011;6604;52.484;13.330;2022-09-03T09:50:13;2.00;;;1.50;;
13075;SDS011;6604;52.484;13.330;2022-09-03T09:52:40;5.30;;;1.50;;
13075;SDS011;6604;52.484;13.330;2022-09-03T09:55:13;3.37;;;1.87;;
13075;SDS011;6604;52.484;13.330;2022-09-03T09:57:39;2.00;;;1.60;;
13075;SDS011;6604;52.484;13.330;2022-09-03T10:00:08;3.17;;;1.67;;
13075;SDS011;6604;52.484;13.330;2022-09-03T10:02:36;2.30;;;1.30;;
13075;SDS011;6604;52.484;13.330;2022-09-03T10:05:11;1.47;;;1.10;;
13075;SDS011;6604;52.484;13.330;2022-09-03T10:07:38;3.57;;;1.30;;
13075;SDS011;6604;52.484;13.330;2022-09-03T10:10:05;1.20;;;1.10;;
13075;SDS011;6604;52.484;13.330;2022-09-03T10:12:34;4.97;;;1.40;;
13075;SDS011;6604;52.484;13.330;2022-09-03T10:15:04;2.60;;;1.40;;
13075;SDS011;6604;52.484;13.330;2022-09-03T10:17:38;1.43;;;1.10;;
13075;SDS011;6604;52.484;13.330;2022-09-03T10:20:08;2.00;;;1.23;;
13075;SDS011;6604;52.484;13.330;2022-09-03T10:22:56;3.57;;;1.30;;
13075;SDS011;6604;52.484;13.330;2022-09-03T10:25:26;2.33;;;1.30;;
13075;SDS011;6604;52.484;13.330;2022-09-03T10:27:58;4.20;;;1.43;;
13075;SDS011;6604;52.484;13.330;2022-09-03T10:30:26;2.37;;;1.20;;
13075;SDS011;6604;52.484;13.330;2022-09-03T10:32:56;2.80;;;1.40;;
13075;SDS011;6604;52.484;13.330;2022-09-03T10:35:27;1.20;;;1.10;;
13075;SDS011;6604;52.484;13.330;2022-09-03T10:37:54;1.40;;;1.30;;
13075;SDS011;6604;52.484;13.330;2022-09-03T10:40:28;1.20;;;1.10;;
13075;SDS011;6604;52.484;13.330;2022-09-03T10:45:38;2.57;;;1.60;;
13075;SDS011;6604;52.484;13.330;2022-09-03T10:48:21;1.47;;;1.13;;
13075;SDS011;6604;52.484;13.330;2022-09-03T10:50:51;3.63;;;1.23;;
13075;SDS011;6604;52.484;13.330;2022-09-03T10:53:20;1.43;;;1.33;;
13075;SDS011;6604;52.484;13.330;2022-09-03T10:55:54;1.30;;;1.20;;
13075;SDS011;6604;52.484;13.330;2022-09-03T10:58:27;1.67;;;1.20;;
13075;SDS011;6604;52.484;13.330;2022-09-03T11:00:57;3.30;;;1.30;;
13075;SDS011;6604;52.484;13.330;2022-09-03T11:03:37;1.90;;;1.37;;
13075;SDS011;6604;52.484;13.330;2022-09-03T11:06:07;1.47;;;1.30;;
13075;SDS011;6604;52.484;13.330;2022-09-03T11:08:36;4.47;;;1.37;;
13075;SDS011;6604;52.484;13.330;2022-09-03T11:11:09;2.03;;;1.40;;
13075;SDS011;6604;52.484;13.330;2022-09-03T11:13:38;3.40;;;1.23;;
13075;SDS011;6604;52.484;13.330;2022-09-03T11:16:07;6.20;;;1.40;;
13075;SDS011;6604;52.484;13.330;2022-09-03T11:18:39;2.83;;;1.40;;
13075;SDS011;6604;52.484;13.330;2022-09-03T11:21:07;2.03;;;1.30;;
13075;SDS011;6604;52.484;13.330;2022-09-03T11:23:35;3.60;;;1.30;;
13075;SDS011;6604;52.484;13.330;2022-09-03T11:26:04;7.23;;;1.37;;
13075;SDS011;6604;52.484;13.330;2022-09-03T11:28:34;2.03;;;1.50;;
13075;SDS011;6604;52.484;13.330;2022-09-03T11:31:11;4.57;;;1.43;;
13075;SDS011;6604;52.484;13.330;2022-09-03T11:33:41;2.53;;;1.40;;
13075;SDS011;6604;52.484;13.330;2022-09-03T11:36:09;2.30;;;1.10;;
13075;SDS011;6604;52.484;13.330;2022-09-03T11:38:36;2.63;;;1.37;;
13075;SDS011;6604;52.484;13.330;2022-09-03T11:41:09;2.53;;;1.23;;
13075;SDS011;6604;52.484;13.330;2022-09-03T11:43:37;1.40;;;1.30;;
13075;SDS011;6604;52.484;13.330;2022-09-03T11:46:05;1.40;;;1.30;;
13075;SDS011;6604;52.484;13.330;2022-09-03T11:48:36;2.63;;;1.57;;
13075;SDS011;6604;52.484;13.330;2022-09-03T11:51:14;1.63;;;1.33;;
13075;SDS011;6604;52.484;13.330;2022-09-03T11:53:51;2.67;;;1.10;;
13075;SDS011;6604;52.484;13.330;2022-09-03T11:56:18;1.43;;;1.23;;
13075;SDS011;6604;52.484;13.330;2022-09-03T11:58:45;1.83;;;1.00;;
13075;SDS011;6604;52.484;13.330;2022-09-03T12:01:12;2.00;;;1.27;;
13075;SDS011;6604;52.484;13.330;2022-09-03T12:03:42;3.87;;;1.50;;
13075;SDS011;6604;52.484;13.330;2022-09-03T12:06:21;3.17;;;1.27;;
13075;SDS011;6604;52.484;13.330;2022-09-03T12:11:41;3.23;;;1.43;;
13075;SDS011;6604;52.484;13.330;2022-09-03T12:14:11;2.33;;;1.30;;
13075;SDS011;6604;52.484;13.330;2022-09-03T12:16:47;1.60;;;1.23;;
13075;SDS011;6604;52.484;13.330;2022-09-03T12:19:18;4.63;;;1.50;;
13075;SDS011;6604;52.484;13.330;2022-09-03T12:21:48;3.70;;;1.37;;
13075;SDS011;6604;52.484;13.330;2022-09-03T12:24:14;2.73;;;1.50;;
13075;SDS011;6604;52.484;13.330;2022-09-03T12:26:41;1.53;;;1.40;;
13075;SDS011;6604;52.484;13.330;2022-09-03T12:29:18;2.33;;;1.03;;
13075;SDS011;6604;52.484;13.330;2022-09-03T12:31:45;1.90;;;1.37;;
13075;SDS011;6604;52.484;13.330;2022-09-03T12:34:14;5.70;;;1.30;;
13075;SDS011;6604;52.484;13.330;2022-09-03T12:36:42;3.20;;;1.10;;
13075;SDS011;6604;52.484;13.330;2022-09-03T12:39:11;2.13;;;1.50;;
13075;SDS011;6604;52.484;13.330;2022-09-03T12:41:45;1.53;;;1.30;;
13075;SDS011;6604;52.484;13.330;2022-09-03T12:44:23;1.37;;;1.20;;
13075;SDS011;6604;52.484;13.330;2022-09-03T12:46:58;1.90;;;1.50;;
13075;SDS011;6604;52.484;13.330;2022-09-03T12:49:25;1.43;;;1.33;;
13075;SDS011;6604;52.484;13.330;2022-09-03T12:51:56;8.07;;;1.60;;
13075;SDS011;6604;52.484;13.330;2022-09-03T12:54:25;3.37;;;1.17;;
13075;SDS011;6604;52.484;13.330;2022-09-03T12:56:53;2.10;;;1.30;;
13075;SDS011;6604;52.484;13.330;2022-09-03T12:59:21;1.37;;;1.13;;
13075;SDS011;6604;52.484;13.330;2022-09-03T13:01:48;1.27;;;1.17;;
13075;SDS011;6604;52.484;13.330;2022-09-03T13:04:17;1.83;;;1.40;;
13075;SDS011;6604;52.484;13.330;2022-09-03T13:06:46;1.80;;;1.57;;
13075;SDS011;6604;52.484;13.330;2022-09-03T13:09:14;2.13;;;1.20;;
13075;SDS011;6604;52.484;13.330;2022-09-03T13:11:42;1.70;;;1.30;;
13075;SDS011;6604;52.484;13.330;2022-09-03T13:14:10;1.97;;;1.40;;
13075;SDS011;6604;52.484;13.330;2022-09-03T13:16:53;3.67;;;1.50;;
13075;SDS011;6604;52.484;13.330;2022-09-03T13:19:25;1.40;;;1.30;;
13075;SDS011;6604;52.484;13.330;2022-09-03T13:21:54;1.70;;;1.30;;
13075;SDS011;6604;52.484;13.330;2022-09-03T13:24:35;1.50;;;1.30;;
13075;SDS011;6604;52.484;13.330;2022-09-03T13:27:09;1.50;;;1.20;;
13075;SDS011;6604;52.484;13.330;2022-09-03T13:29:47;2.27;;;1.33;;
13075;SDS011;6604;52.484;13.330;2022-09-03T13:32:22;4.17;;;1.60;;
13075;SDS011;6604;52.484;13.330;2022-09-03T13:34:52;3.33;;;1.50;;
13075;SDS011;6604;52.484;13.330;2022-09-03T13:37:22;2.07;;;1.30;;
13075;SDS011;6604;52.484;13.330;2022-09-03T13:39:51;2.40;;;1.20;;
13075;SDS011;6604;52.484;13.330;2022-09-03T13:42:21;1.50;;;1.40;;
13075;SDS011;6604;52.484;13.330;2022-09-03T13:44:54;2.80;;;1.40;;
13075;SDS011;6604;52.484;13.330;2022-09-03T13:47:24;2.80;;;1.30;;
13075;SDS011;6604;52.484;13.330;2022-09-03T13:49:53;4.30;;;1.47;;
13075;SDS011;6604;52.484;13.330;2022-09-03T13:52:39;3.70;;;1.30;;
13075;SDS011;6604;52.484;13.330;2022-09-03T13:55:08;2.03;;;1.33;;
13075;SDS011;6604;52.484;13.330;2022-09-03T13:57:39;1.40;;;1.30;;
13075;SDS011;6604;52.484;13.330;2022-09-03T14:00:12;2.20;;;1.50;;
13075;SDS011;6604;52.484;13.330;2022-09-03T14:02:44;2.00;;;1.60;;
13075;SDS011;6604;52.484;13.330;2022-09-03T14:05:12;1.63;;;1.50;;
13075;SDS011;6604;52.484;13.330;2022-09-03T14:07:47;1.93;;;1.30;;
13075;SDS011;6604;52.484;13.330;2022-09-03T14:10:22;1.40;;;1.30;;
13075;SDS011;6604;52.484;13.330;2022-09-03T14:12:52;2.03;;;1.53;;
13075;SDS011;6604;52.484;13.330;2022-09-03T14:15:26;3.00;;;1.63;;
13075;SDS011;6604;52.484;13.330;2022-09-03T14:17:56;1.60;;;1.30;;
13075;SDS011;6604;52.484;13.330;2022-09-03T14:20:27;1.90;;;1.30;;
13075;SDS011;6604;52.484;13.330;2022-09-03T14:22:55;2.20;;;1.70;;
13075;SDS011;6604;52.484;13.330;2022-09-03T14:25:24;3.57;;;1.50;;
13075;SDS011;6604;52.484;13.330;2022-09-03T14:27:52;2.83;;;1.57;;
13075;SDS011;6604;52.484;13.330;2022-09-03T14:30:30;5.10;;;1.50;;
13075;SDS011;6604;52.484;13.330;2022-09-03T14:33:01;3.03;;;1.50;;
13075;SDS011;6604;52.484;13.330;2022-09-03T14:35:36;1.83;;;1.40;;
13075;SDS011;6604;52.484;13.330;2022-09-03T14:38:10;2.67;;;1.60;;
13075;SDS011;6604;52.484;13.330;2022-09-03T14:40:39;1.70;;;1.30;;
13075;SDS011;6604;52.484;13.330;2022-09-03T14:43:13;1.80;;;1.37;;
13075;SDS011;6604;52.484;13.330;2022-09-03T14:45:50;3.00;;;1.67;;
13075;SDS011;6604;52.484;13.330;2022-09-03T14:48:25;2.73;;;1.53;;
13075;SDS011;6604;52.484;13.330;2022-09-03T14:50:59;2.40;;;1.50;;
13075;SDS011;6604;52.484;13.330;2022-09-03T14:56:20;1.70;;;1.50;;
13075;SDS011;6604;52.484;13.330;2022-09-03T14:58:54;1.83;;;1.67;;
13075;SDS011;6604;52.484;13.330;2022-09-03T15:01:26;3.83;;;2.00;;
13075;SDS011;6604;52.484;13.330;2022-09-03T15:04:06;2.80;;;2.00;;
13075;SDS011;6604;52.484;13.330;2022-09-03T15:06:50;2.80;;;1.70;;
13075;SDS011;6604;52.484;13.330;2022-09-03T15:09:23;1.83;;;1.73;;
13075;SDS011;6604;52.484;13.330;2022-09-03T15:11:53;1.73;;;1.60;;
13075;SDS011;6604;52.484;13.330;2022-09-03T15:14:23;1.67;;;1.57;;
13075;SDS011;6604;52.484;13.330;2022-09-03T15:16:52;6.23;;;1.90;;
13075;SDS011;6604;52.484;13.330;2022-09-03T15:19:37;2.37;;;1.80;;
13075;SDS011;6604;52.484;13.330;2022-09-03T15:22:07;3.90;;;1.57;;
13075;SDS011;6604;52.484;13.330;2022-09-03T15:24:41;3.57;;;1.47;;
13075;SDS011;6604;52.484;13.330;2022-09-03T15:27:11;1.57;;;1.43;;
13075;SDS011;6604;52.484;13.330;2022-09-03T15:29:48;1.70;;;1.57;;
13075;SDS011;6604;52.484;13.330;2022-09-03T15:32:24;1.87;;;1.70;;
13075;SDS011;6604;52.484;13.330;2022-09-03T15:34:54;1.70;;;1.60;;
13075;SDS011;6604;52.484;13.330;2022-09-03T15:37:24;2.53;;;1.87;;
13075;SDS011;6604;52.484;13.330;2022-09-03T15:39:56;2.53;;;1.60;;
13075;SDS011;6604;52.484;13.330;2022-09-03T15:42:25;2.07;;;1.70;;
13075;SDS011;6604;52.484;13.330;2022-09-03T15:44:53;2.97;;;1.70;;
13075;SDS011;6604;52.484;13.330;2022-09-03T15:47:28;1.87;;;1.70;;
13075;SDS011;6604;52.484;13.330;2022-09-03T15:49:58;3.53;;;1.80;;
13075;SDS011;6604;52.484;13.330;2022-09-03T15:52:29;2.83;;;1.80;;
13075;SDS011;6604;52.484;13.330;2022-09-03T15:55:00;2.20;;;2.00;;
13075;SDS011;6604;52.484;13.330;2022-09-03T15:57:28;2.10;;;1.70;;
13075;SDS011;6604;52.484;13.330;2022-09-03T15:59:58;2.20;;;1.90;;
13075;SDS011;6604;52.484;13.330;2022-09-03T16:02:29;2.87;;;1.80;;
13075;SDS011;6604;52.484;13.330;2022-09-03T16:05:02;1.67;;;1.57;;
13075;SDS011;6604;52.484;13.330;2022-09-03T16:07:38;6.10;;;1.70;;
13075;SDS011;6604;52.484;13.330;2022-09-03T16:10:07;3.80;;;1.90;;
13075;SDS011;6604;52.484;13.330;2022-09-03T16:12:38;1.77;;;1.67;;
13075;SDS011;6604;52.484;13.330;2022-09-03T16:15:08;4.63;;;2.03;;
13075;SDS011;6604;52.484;13.330;2022-09-03T16:17:36;2.00;;;1.80;;
13075;SDS011;6604;52.484;13.330;2022-09-03T16:20:05;1.80;;;1.70;;
13075;SDS011;6604;52.484;13.330;2022-09-03T16:22:32;1.93;;;1.73;;
13075;SDS011;6604;52.484;13.330;2022-09-03T16:25:06;1.87;;;1.70;;
13075;SDS011;6604;52.484;13.330;2022-09-03T16:27:35;4.33;;;2.00;;
13075;SDS011;6604;52.484;13.330;2022-09-03T16:30:08;2.20;;;2.00;;
13075;SDS011;6604;52.484;13.330;2022-09-03T16:32:45;3.30;;;2.00;;
13075;SDS011;6604;52.484;13.330;2022-09-03T16:35:18;2.60;;;1.87;;
13075;SDS011;6604;52.484;13.330;2022-09-03T16:37:51;2.37;;;1.73;;
13075;SDS011;6604;52.484;13.330;2022-09-03T16:40:21;3.63;;;2.20;;
13075;SDS011;6604;52.484;13.330;2022-09-03T16:42:52;3.03;;;1.60;;
13075;SDS011;6604;52.484;13.330;2022-09-03T16:45:27;3.30;;;1.70;;
13075;SDS011;6604;52.484;13.330;2022-09-03T16:48:03;1.93;;;1.73;;
13075;SDS011;6604;52.484;13.330;2022-09-03T16:50:36;2.90;;;1.70;;
13075;SDS011;6604;52.484;13.330;2022-09-03T16:53:06;4.20;;;2.03;;
13075;SDS011;6604;52.484;13.330;2022-09-03T16:55:43;4.50;;;2.00;;
13075;SDS011;6604;52.484;13.330;2022-09-03T16:58:13;3.07;;;1.73;;
13075;SDS011;6604;52.484;13.330;2022-09-03T17:00:51;2.17;;;1.70;;
13075;SDS011;6604;52.484;13.330;2022-09-03T17:06:14;3.93;;;2.17;;
13075;SDS011;6604;52.484;13.330;2022-09-03T17:08:45;2.60;;;1.90;;
13075;SDS011;6604;52.484;13.330;2022-09-03T17:11:25;2.20;;;1.90;;
13075;SDS011;6604;52.484;13.330;2022-09-03T17:13:59;3.97;;;2.27;;
13075;SDS011;6604;52.484;13.330;2022-09-03T17:16:33;6.20;;;2.33;;
13075;SDS011;6604;52.484;13.330;2022-09-03T17:19:03;2.73;;;2.10;;
13075;SDS011;6604;52.484;13.330;2022-09-03T17:21:36;2.30;;;2.10;;
13075;SDS011;6604;52.484;13.330;2022-09-03T17:24:15;4.00;;;2.07;;
13075;SDS011;6604;52.484;13.330;2022-09-03T17:26:50;4.93;;;2.20;;
13075;SDS011;6604;52.484;13.330;2022-09-03T17:32:04;3.03;;;1.93;;
13075;SDS011;6604;52.484;13.330;2022-09-03T17:34:38;4.07;;;2.63;;
13075;SDS011;6604;52.484;13.330;2022-09-03T17:37:07;2.70;;;2.40;;
13075;SDS011;6604;52.484;13.330;2022-09-03T17:39:45;2.43;;;2.20;;
13075;SDS011;6604;52.484;13.330;2022-09-03T17:42:15;3.90;;;2.07;;
13075;SDS011;6604;52.484;13.330;2022-09-03T17:44:45;2.83;;;2.40;;
13075;SDS011;6604;52.484;13.330;2022-09-03T17:47:30;3.30;;;2.50;;
13075;SDS011;6604;52.484;13.330;2022-09-03T17:49:58;3.33;;;2.40;;
13075;SDS011;6604;52.484;13.330;2022-09-03T17:52:27;4.20;;;2.67;;
13075;SDS011;6604;52.484;13.330;2022-09-03T17:54:57;4.27;;;2.67;;
13075;SDS011;6604;52.484;13.330;2022-09-03T17:57:25;3.90;;;2.53;;
13075;SDS011;6604;52.484;13.330;2022-09-03T17:59:55;4.47;;;2.37;;
13075;SDS011;6604;52.484;13.330;2022-09-03T18:02:26;2.60;;;2.33;;
13075;SDS011;6604;52.484;13.330;2022-09-03T18:04:55;4.57;;;2.30;;
13075;SDS011;6604;52.484;13.330;2022-09-03T18:07:25;7.90;;;2.40;;
13075;SDS011;6604;52.484;13.330;2022-09-03T18:09:58;4.10;;;2.90;;
13075;SDS011;6604;52.484;13.330;2022-09-03T18:12:29;6.90;;;2.63;;
13075;SDS011;6604;52.484;13.330;2022-09-03T18:15:02;3.13;;;2.67;;
13075;SDS011;6604;52.484;13.330;2022-09-03T18:17:30;4.03;;;2.70;;
13075;SDS011;6604;52.484;13.330;2022-09-03T18:19:59;4.50;;;2.90;;
13075;SDS011;6604;52.484;13.330;2022-09-03T18:22:46;4.03;;;3.20;;
13075;SDS011;6604;52.484;13.330;2022-09-03T18:25:32;4.93;;;2.80;;
13075;SDS011;6604;52.484;13.330;2022-09-03T18:28:18;6.37;;;3.53;;
13075;SDS011;6604;52.484;13.330;2022-09-03T18:31:08;4.30;;;2.80;;
13075;SDS011;6604;52.484;13.330;2022-09-03T18:33:52;4.20;;;3.27;;
13075;SDS011;6604;52.484;13.330;2022-09-03T18:36:39;6.03;;;2.80;;
13075;SDS011;6604;52.484;13.330;2022-09-03T18:39:24;2.90;;;2.50;;
13075;SDS011;6604;52.484;13.330;2022-09-03T18:42:10;5.00;;;2.90;;
13075;SDS011;6604;52.484;13.330;2022-09-03T18:44:58;3.53;;;2.83;;
13075;SDS011;6604;52.484;13.330;2022-09-03T18:47:47;4.40;;;2.60;;
13075;SDS011;6604;52.484;13.330;2022-09-03T18:50:40;3.07;;;2.60;;
13075;SDS011;6604;52.484;13.330;2022-09-03T18:53:27;3.07;;;2.60;;
13075;SDS011;6604;52.484;13.330;2022-09-03T18:56:14;4.30;;;2.40;;
13075;SDS011;6604;52.484;13.330;2022-09-03T18:59:07;5.23;;;2.63;;
13075;SDS011;6604;52.484;13.330;2022-09-03T19:01:56;6.93;;;2.57;;
13075;SDS011;6604;52.484;13.330;2022-09-03T19:04:46;6.63;;;3.30;;
13075;SDS011;6604;52.484;13.330;2022-09-03T19:07:33;2.70;;;2.43;;
13075;SDS011;6604;52.484;13.330;2022-09-03T19:10:23;2.97;;;2.30;;
13075;SDS011;6604;52.484;13.330;2022-09-03T19:13:12;4.53;;;2.80;;
13075;SDS011;6604;52.484;13.330;2022-09-03T19:15:58;3.40;;;2.40;;
13075;SDS011;6604;52.484;13.330;2022-09-03T19:18:52;2.60;;;2.37;;
13075;SDS011;6604;52.484;13.330;2022-09-03T19:21:42;2.70;;;2.30;;
13075;SDS011;6604;52.484;13.330;2022-09-03T19:24:29;4.20;;;2.30;;
13075;SDS011;6604;52.484;13.330;2022-09-03T19:27:16;3.63;;;2.20;;
13075;SDS011;6604;52.484;13.330;2022-09-03T19:30:06;3.17;;;2.40;;
13075;SDS011;6604;52.484;13.330;2022-09-03T19:32:55;3.00;;;2.70;;
13075;SDS011;6604;52.484;13.330;2022-09-03T19:35:43;3.30;;;2.63;;
13075;SDS011;6604;52.484;13.330;2022-09-03T19:38:33;3.70;;;2.60;;
13075;SDS011;6604;52.484;13.330;2022-09-03T19:41:19;4.30;;;2.63;;
13075;SDS011;6604;52.484;13.330;2022-09-03T19:44:12;4.07;;;2.33;;
13075;SDS011;6604;52.484;13.330;2022-09-03T19:46:59;4.57;;;2.33;;
13075;SDS011;6604;52.484;13.330;2022-09-03T19:49:49;5.80;;;2.53;;
13075;SDS011;6604;52.484;13.330;2022-09-03T19:52:36;3.13;;;2.23;;
13075;SDS011;6604;52.484;13.330;2022-09-03T19:55:24;5.40;;;2.67;;
13075;SDS011;6604;52.484;13.330;2022-09-03T19:58:08;4.90;;;3.03;;
13075;SDS011;6604;52.484;13.330;2022-09-03T20:00:55;3.33;;;2.97;;
13075;SDS011;6604;52.484;13.330;2022-09-03T20:03:38;7.10;;;3.30;;
13075;SDS011;6604;52.484;13.330;2022-09-03T20:06:23;3.87;;;3.07;;
13075;SDS011;6604;52.484;13.330;2022-09-03T20:09:07;5.80;;;2.70;;
13075;SDS011;6604;52.484;13.330;2022-09-03T20:11:52;4.27;;;2.70;;
13075;SDS011;6604;52.484;13.330;2022-09-03T20:14:19;4.20;;;3.03;;
13075;SDS011;6604;52.484;13.330;2022-09-03T20:16:50;8.07;;;3.17;;
13075;SDS011;6604;52.484;13.330;2022-09-03T20:19:20;3.90;;;2.67;;
13075;SDS011;6604;52.484;13.330;2022-09-03T20:21:52;5.13;;;3.03;;
13075;SDS011;6604;52.484;13.330;2022-09-03T20:24:23;4.47;;;3.00;;
13075;SDS011;6604;52.484;13.330;2022-09-03T20:26:55;3.60;;;2.90;;
13075;SDS011;6604;52.484;13.330;2022-09-03T20:29:29;4.10;;;3.03;;
13075;SDS011;6604;52.484;13.330;2022-09-03T20:32:01;7.50;;;2.97;;
13075;SDS011;6604;52.484;13.330;2022-09-03T20:34:33;4.30;;;2.80;;
13075;SDS011;6604;52.484;13.330;2022-09-03T20:37:07;3.83;;;2.60;;
13075;SDS011;6604;52.484;13.330;2022-09-03T20:39:38;6.93;;;2.40;;
13075;SDS011;6604;52.484;13.330;2022-09-03T20:42:15;3.93;;;3.00;;
13075;SDS011;6604;52.484;13.330;2022-09-03T20:44:51;5.10;;;2.33;;
13075;SDS011;6604;52.484;13.330;2022-09-03T20:47:27;4.53;;;2.73;;
13075;SDS011;6604;52.484;13.330;2022-09-03T20:49:56;4.93;;;2.53;;
13075;SDS011;6604;52.484;13.330;2022-09-03T20:52:31;2.40;;;2.17;;
13075;SDS011;6604;52.484;13.330;2022-09-03T20:55:06;2.73;;;2.33;;
13075;SDS011;6604;52.484;13.330;2022-09-03T20:57:39;4.47;;;2.50;;
13075;SDS011;6604;52.484;13.330;2022-09-03T21:00:09;3.70;;;2.30;;
13075;SDS011;6604;52.484;13.330;2022-09-03T21:05:25;2.67;;;2.30;;
13075;SDS011;6604;52.484;13.330;2022-09-03T21:07:59;3.00;;;2.03;;
13075;SDS011;6604;52.484;13.330;2022-09-03T21:10:30;5.17;;;2.40;;
13075;SDS011;6604;52.484;13.330;2022-09-03T21:13:00;3.03;;;2.40;;
13075;SDS011;6604;52.484;13.330;2022-09-03T21:15:30;3.13;;;2.40;;
13075;SDS011;6604;52.484;13.330;2022-09-03T21:18:00;3.93;;;2.43;;
13075;SDS011;6604;52.484;13.330;2022-09-03T21:20:33;2.70;;;2.23;;
13075;SDS011;6604;52.484;13.330;2022-09-03T21:23:06;4.67;;;2.40;;
13075;SDS011;6604;52.484;13.330;2022-09-03T21:25:36;2.63;;;2.20;;
13075;SDS011;6604;52.484;13.330;2022-09-03T21:28:05;6.03;;;2.47;;
13075;SDS011;6604;52.484;13.330;2022-09-03T21:30:33;3.70;;;2.20;;
13075;SDS011;6604;52.484;13.330;2022-09-03T21:33:06;2.97;;;2.10;;
13075;SDS011;6604;52.484;13.330;2022-09-03T21:35:36;4.83;;;2.47;;
13075;SDS011;6604;52.484;13.330;2022-09-03T21:38:04;4.10;;;2.33;;
13075;SDS011;6604;52.484;13.330;2022-09-03T21:40:31;3.07;;;2.37;;
13075;SDS011;6604;52.484;13.330;2022-09-03T21:43:02;3.53;;;2.50;;
13075;SDS011;6604;52.484;13.330;2022-09-03T21:45:30;7.40;;;2.57;;
13075;SDS011;6604;52.484;13.330;2022-09-03T21:47:59;3.20;;;2.40;;
13075;SDS011;6604;52.484;13.330;2022-09-03T21:50:27;3.33;;;2.70;;
13075;SDS011;6604;52.484;13.330;2022-09-03T21:52:58;2.73;;;2.27;;
13075;SDS011;6604;52.484;13.330;2022-09-03T21:55:29;3.50;;;2.43;;
13075;SDS011;6604;52.484;13.330;2022-09-03T21:58:05;2.60;;;2.13;;
13075;SDS011;6604;52.484;13.330;2022-09-03T22:00:34;3.97;;;2.30;;
13075;SDS011;6604;52.484;13.330;2022-09-03T22:03:02;4.17;;;2.40;;
13075;SDS011;6604;52.484;13.330;2022-09-03T22:05:32;3.87;;;2.30;;
13075;SDS011;6604;52.484;13.330;2022-09-03T22:08:06;2.87;;;2.30;;
13075;SDS011;6604;52.484;13.330;2022-09-03T22:10:37;4.23;;;2.73;;
13075;SDS011;6604;52.484;13.330;2022-09-03T22:13:09;3.63;;;2.10;;
13075;SDS011;6604;52.484;13.330;2022-09-03T22:15:39;3.00;;;2.00;;
13075;SDS011;6604;52.484;13.330;2022-09-03T22:18:06;6.10;;;2.70;;
13075;SDS011;6604;52.484;13.330;2022-09-03T22:20:34;3.97;;;2.43;;
13075;SDS011;6604;52.484;13.330;2022-09-03T22:23:02;3.70;;;2.80;;
13075;SDS011;6604;52.484;13.330;2022-09-03T22:25:33;2.37;;;2.10;;
13075;SDS011;6604;52.484;13.330;2022-09-03T22:28:06;3.40;;;2.40;;
13075;SDS011;6604;52.484;13.330;2022-09-03T22:30:36;2.90;;;2.30;;
13075;SDS011;6604;52.484;13.330;2022-09-03T22:33:05;2.80;;;2.23;;
13075;SDS011;6604;52.484;13.330;2022-09-03T22:35:40;4.87;;;2.20;;
13075;SDS011;6604;52.484;13.330;2022-09-03T22:38:20;3.40;;;2.03;;
13075;SDS011;6604;52.484;13.330;2022-09-03T22:40:52;3.93;;;2.00;;
13075;SDS011;6604;52.484;13.330;2022-09-03T22:43:27;3.10;;;2.10;;
13075;SDS011;6604;52.484;13.330;2022-09-03T22:46:00;2.20;;;2.00;;
13075;SDS011;6604;52.484;13.330;2022-09-03T22:48:30;2.87;;;2.00;;
13075;SDS011;6604;52.484;13.330;2022-09-03T22:51:01;2.53;;;2.03;;
13075;SDS011;6604;52.484;13.330;2022-09-03T22:53:32;3.03;;;2.07;;
13075;SDS011;6604;52.484;13.330;2022-09-03T22:56:01;2.50;;;1.93;;
13075;SDS011;6604;52.484;13.330;2022-09-03T22:58:31;2.27;;;2.07;;
13075;SDS011;6604;52.484;13.330;2022-09-03T23:01:02;3.37;;;1.90;;
13075;SDS011;6604;52.484;13.330;2022-09-03T23:03:30;2.27;;;1.80;;
13075;SDS011;6604;52.484;13.330;2022-09-03T23:06:02;2.63;;;2.00;;
13075;SDS011;6604;52.484;13.330;2022-09-03T23:08:31;2.43;;;2.07;;
13075;SDS011;6604;52.484;13.330;2022-09-03T23:11:02;1.90;;;1.80;;
13075;SDS011;6604;52.484;13.330;2022-09-03T23:13:32;1.90;;;1.73;;
13075;SDS011;6604;52.484;13.330;2022-09-03T23:16:02;3.43;;;1.60;;
13075;SDS011;6604;52.484;13.330;2022-09-03T23:18:31;2.60;;;1.90;;
13075;SDS011;6604;52.484;13.330;2022-09-03T23:21:01;6.27;;;1.90;;
13075;SDS011;6604;52.484;13.330;2022-09-03T23:23:30;2.40;;;1.90;;
13075;SDS011;6604;52.484;13.330;2022-09-03T23:26:02;3.00;;;1.77;;